Time;durP1;ratioP1;P1;durP2;ratioP2;P2;SDS_P1;SDS_P2;PMS_P1;PMS_P2;Temp;Humidity;BMP_temperature;BMP_pressure;BME280_temperature;BME280_humidity;BME280_pressure;Samples;Min_cycle;Max_cycle;Signal;HPM_P1;HPM_P2
2022/12/13 00:01:34;;;;;;;12.00;7.13;;;-0.70;99.90;;;;;;4943231;28;20211;-81
2022/12/13 00:04:05;;;;;;;13.33;7.60;;;-0.70;99.90;;;;;;4971340;28;20191;-80
2022/12/13 00:06:31;;;;;;;14.03;7.90;;;-0.70;99.90;;;;;;4962970;28;20180;-81
2022/12/13 00:09:00;;;;;;;12.63;7.47;;;-0.70;99.90;;;;;;4970380;28;20195;-80
2022/12/13 00:11:28;;;;;;;10.73;6.83;;;-0.80;99.90;;;;;;4972750;28;20208;-81
2022/12/13 00:13:54;;;;;;;10.20;6.77;;;-0.80;99.90;;;;;;4979008;28;20266;-81
2022/12/13 00:16:24;;;;;;;12.70;6.77;;;-0.80;99.90;;;;;;4966855;28;20211;-81
2022/12/13 00:18:54;;;;;;;10.70;6.83;;;-0.90;99.90;;;;;;4961416;28;20188;-81
2022/12/13 00:21:23;;;;;;;11.13;6.57;;;-0.90;99.90;;;;;;4958363;28;20321;-81
2022/12/13 00:23:49;;;;;;;10.77;6.47;;;-1.00;99.90;;;;;;4956253;28;20180;-81
2022/12/13 00:26:18;;;;;;;11.23;6.90;;;-0.90;99.90;;;;;;4962210;28;20195;-80
2022/12/13 00:28:44;;;;;;;13.07;8.17;;;-1.00;99.90;;;;;;4955088;28;20205;-81
2022/12/13 00:31:09;;;;;;;13.47;8.33;;;-1.10;99.90;;;;;;4959944;28;20243;-77
2022/12/13 00:33:38;;;;;;;15.87;9.30;;;-1.10;99.90;;;;;;4966834;28;20187;-79
2022/12/13 00:36:06;;;;;;;14.47;8.60;;;-1.10;99.90;;;;;;4964987;28;20298;-79
2022/12/13 00:38:37;;;;;;;13.87;8.23;;;-1.20;99.90;;;;;;4954901;28;20189;-79
2022/12/13 00:41:34;;;;;;;14.33;8.67;;;-1.20;99.90;;;;;;4944407;28;20200;-79
2022/12/13 00:44:00;;;;;;;13.70;8.20;;;-1.30;99.90;;;;;;4957483;28;20216;-79
2022/12/13 00:46:27;;;;;;;15.03;8.57;;;-1.30;99.90;;;;;;4961397;28;20396;-80
2022/12/13 00:48:55;;;;;;;12.93;8.03;;;-1.40;99.90;;;;;;4970813;28;20182;-79
2022/12/13 00:51:25;;;;;;;14.90;8.47;;;-1.40;99.90;;;;;;4958098;28;20291;-79
2022/12/13 00:53:50;;;;;;;13.50;8.63;;;-1.40;99.90;;;;;;4962155;28;20267;-78
2022/12/13 00:56:24;;;;;;;13.23;7.80;;;-1.40;99.90;;;;;;4968184;28;20200;-80
2022/12/13 00:58:55;;;;;;;14.17;8.60;;;-1.40;99.90;;;;;;4956603;28;20234;-80
2022/12/13 01:01:28;;;;;;;13.57;7.77;;;-1.50;99.90;;;;;;4961358;28;20199;-79
2022/12/13 01:03:56;;;;;;;11.83;7.20;;;-1.50;99.90;;;;;;4964651;28;20231;-79
2022/12/13 01:06:44;;;;;;;12.83;7.03;;;-1.50;99.90;;;;;;4963103;28;20206;-79
2022/12/13 01:09:16;;;;;;;10.67;6.73;;;-1.50;99.90;;;;;;4958272;28;20188;-79
2022/12/13 01:11:43;;;;;;;10.80;6.57;;;-1.50;99.90;;;;;;4982545;28;20175;-78
2022/12/13 01:14:11;;;;;;;9.53;6.07;;;-1.50;99.90;;;;;;4969028;28;20235;-79
2022/12/13 01:16:39;;;;;;;9.73;6.17;;;-1.40;99.90;;;;;;4960648;28;20262;-78
2022/12/13 01:19:07;;;;;;;9.90;6.03;;;-1.50;99.90;;;;;;4969071;28;20258;-79
2022/12/13 01:21:33;;;;;;;11.93;6.90;;;-1.50;99.90;;;;;;4964047;28;20171;-78
2022/12/13 01:24:04;;;;;;;10.23;6.50;;;-1.50;99.90;;;;;;4956137;28;20176;-78
2022/12/13 01:26:30;;;;;;;12.50;7.40;;;-1.50;99.90;;;;;;4963312;28;20253;-78
2022/12/13 01:28:56;;;;;;;12.47;8.07;;;-1.50;99.90;;;;;;4957917;28;20185;-78
2022/12/13 01:31:22;;;;;;;13.23;7.37;;;-1.60;99.90;;;;;;4958110;28;20275;-77
2022/12/13 01:33:50;;;;;;;10.40;6.67;;;-1.60;99.90;;;;;;4962503;28;20191;-78
2022/12/13 01:36:20;;;;;;;12.40;7.00;;;-1.60;99.90;;;;;;4960791;28;20192;-78
2022/12/13 01:38:46;;;;;;;12.90;7.63;;;-1.50;99.90;;;;;;4960876;28;20271;-78
2022/12/13 01:41:21;;;;;;;11.37;7.57;;;-1.60;99.90;;;;;;4959629;28;20245;-80
2022/12/13 01:43:47;;;;;;;13.00;7.73;;;-1.50;99.90;;;;;;4962261;28;20205;-80
2022/12/13 01:46:15;;;;;;;13.90;7.73;;;-1.60;99.90;;;;;;4972919;28;20267;-79
2022/12/13 01:48:48;;;;;;;13.33;8.27;;;-1.60;99.90;;;;;;4969246;28;20211;-79
2022/12/13 01:51:19;;;;;;;14.60;9.10;;;-1.60;99.90;;;;;;4970446;28;20179;-79
2022/12/13 01:53:47;;;;;;;11.33;7.63;;;-1.60;99.90;;;;;;4957459;28;20204;-79
2022/12/13 01:56:28;;;;;;;14.33;8.17;;;-1.60;99.90;;;;;;4958915;28;20286;-79
2022/12/13 01:58:55;;;;;;;13.80;7.90;;;-1.60;99.90;;;;;;4963366;28;20194;-79
2022/12/13 02:01:21;;;;;;;14.93;7.83;;;-1.60;99.90;;;;;;4969204;28;20187;-79
2022/12/13 02:03:49;;;;;;;15.20;8.30;;;-1.60;99.90;;;;;;4967480;28;20275;-79
2022/12/13 02:06:35;;;;;;;14.60;8.63;;;-1.60;99.90;;;;;;4953944;28;20172;-80
2022/12/13 02:09:04;;;;;;;13.10;7.70;;;-1.60;99.90;;;;;;4943604;28;20187;-79
2022/12/13 02:11:34;;;;;;;12.80;7.90;;;-1.30;99.90;;;;;;4980783;28;20208;-80
2022/12/13 02:14:04;;;;;;;13.37;7.67;;;-1.60;99.90;;;;;;4959699;28;20222;-78
2022/12/13 02:16:41;;;;;;;12.30;7.57;;;-1.60;99.90;;;;;;4959242;28;20235;-79
2022/12/13 02:19:28;;;;;;;12.63;7.30;;;-1.70;99.90;;;;;;4959057;28;20231;-80
2022/12/13 02:22:29;;;;;;;11.90;7.60;;;-1.60;99.90;;;;;;4961131;28;20197;-79
2022/12/13 02:25:35;;;;;;;11.60;6.97;;;-1.70;99.90;;;;;;4959229;28;20222;-79
2022/12/13 02:28:19;;;;;;;12.77;8.10;;;-1.70;99.90;;;;;;4967878;28;20206;-80
2022/12/13 02:30:53;;;;;;;14.50;7.97;;;-1.60;99.90;;;;;;4943917;28;20181;-79
2022/12/13 02:33:34;;;;;;;10.90;7.20;;;-1.70;99.90;;;;;;4953734;28;20204;-79
2022/12/13 02:36:23;;;;;;;12.80;8.10;;;-1.70;99.90;;;;;;4963314;28;20217;-79
2022/12/13 02:38:55;;;;;;;13.57;7.63;;;-1.70;99.90;;;;;;4958372;28;20202;-78
2022/12/13 02:41:36;;;;;;;12.03;7.63;;;-1.70;99.90;;;;;;4955140;28;20176;-80
2022/12/13 02:44:36;;;;;;;13.53;7.73;;;-1.70;99.90;;;;;;4965753;28;20206;-79
2022/12/13 02:47:15;;;;;;;13.20;7.60;;;-1.70;99.90;;;;;;4961029;28;20218;-80
2022/12/13 02:49:46;;;;;;;15.03;8.10;;;-1.70;99.90;;;;;;4958319;28;20190;-79
2022/12/13 02:52:18;;;;;;;14.17;8.13;;;-1.70;99.90;;;;;;4947361;28;20184;-79
2022/12/13 02:54:44;;;;;;;15.03;8.47;;;-1.80;99.90;;;;;;4962694;28;20199;-80
2022/12/13 02:57:31;;;;;;;14.77;8.53;;;-1.80;99.90;;;;;;4963595;28;20211;-80
2022/12/13 03:00:05;;;;;;;15.20;8.77;;;-1.80;99.90;;;;;;4960091;28;20180;-79
2022/12/13 03:02:42;;;;;;;17.63;9.80;;;-1.80;99.90;;;;;;4973323;28;20202;-79
2022/12/13 03:08:25;;;;;;;14.13;8.43;;;-1.80;99.90;;;;;;4971373;28;20251;-79
2022/12/13 03:11:13;;;;;;;14.43;8.53;;;-1.80;99.90;;;;;;4969322;28;20187;-80
2022/12/13 03:14:00;;;;;;;14.47;8.70;;;-1.80;99.90;;;;;;4965800;28;20180;-80
2022/12/13 03:16:28;;;;;;;14.67;8.43;;;-1.80;99.90;;;;;;4954316;28;20205;-79
2022/12/13 03:18:57;;;;;;;19.90;10.50;;;-1.80;99.90;;;;;;4965864;28;20255;-79
2022/12/13 03:21:24;;;;;;;17.40;9.47;;;-1.80;99.90;;;;;;4965458;28;20177;-79
2022/12/13 03:23:49;;;;;;;15.80;9.90;;;-1.80;99.90;;;;;;4958849;28;20251;-80
2022/12/13 03:26:25;;;;;;;16.17;9.73;;;-1.80;99.90;;;;;;4957963;28;20176;-79
2022/12/13 03:28:54;;;;;;;15.87;9.57;;;-1.80;99.90;;;;;;4964828;28;20199;-79
2022/12/13 03:31:19;;;;;;;14.60;9.30;;;-1.80;99.90;;;;;;4958524;28;20795;-80
2022/12/13 03:33:45;;;;;;;15.70;9.47;;;-1.80;99.90;;;;;;4958727;28;20176;-79
2022/12/13 03:36:11;;;;;;;18.70;10.03;;;-1.80;99.90;;;;;;4958319;28;20180;-80
2022/12/13 03:38:40;;;;;;;18.47;9.77;;;-1.80;99.90;;;;;;4959147;28;20259;-79
2022/12/13 03:41:15;;;;;;;15.63;9.90;;;-1.80;99.90;;;;;;4964454;28;20196;-79
2022/12/13 03:43:41;;;;;;;14.67;9.20;;;-1.80;99.90;;;;;;4964366;28;20210;-79
2022/12/13 03:46:07;;;;;;;16.60;9.03;;;-1.90;99.90;;;;;;4957946;28;20179;-79
2022/12/13 03:48:34;;;;;;;15.83;9.37;;;-1.90;99.90;;;;;;4953423;28;20177;-78
2022/12/13 03:51:01;;;;;;;15.23;8.47;;;-1.90;99.90;;;;;;4973805;28;20266;-78
2022/12/13 03:53:27;;;;;;;16.17;9.27;;;-1.90;99.90;;;;;;4968457;28;20176;-78
2022/12/13 03:55:52;;;;;;;15.43;9.43;;;-1.90;99.90;;;;;;4960798;28;20279;-80
2022/12/13 03:58:18;;;;;;;19.50;11.27;;;-1.90;99.90;;;;;;4950032;28;20203;-79
2022/12/13 04:00:44;;;;;;;17.87;9.83;;;-1.90;99.90;;;;;;4969850;28;20195;-79
2022/12/13 04:03:12;;;;;;;16.63;9.70;;;-2.00;99.90;;;;;;4969625;28;20180;-79
2022/12/13 04:05:38;;;;;;;18.23;10.00;;;-2.00;99.90;;;;;;4966990;28;20204;-79
2022/12/13 04:08:04;;;;;;;16.57;10.00;;;-2.00;99.90;;;;;;4960788;28;20180;-78
2022/12/13 04:10:30;;;;;;;16.33;9.77;;;-2.00;99.90;;;;;;4958913;28;20207;-80
2022/12/13 04:15:47;;;;;;;17.27;10.07;;;-2.00;99.90;;;;;;4974156;28;20183;-80
2022/12/13 04:18:16;;;;;;;14.70;8.90;;;-2.00;99.90;;;;;;4959258;28;20199;-79
2022/12/13 04:20:42;;;;;;;14.50;8.93;;;-2.00;99.90;;;;;;4951717;28;20200;-79
2022/12/13 04:23:10;;;;;;;14.43;8.07;;;-2.00;99.90;;;;;;4956550;28;20212;-80
2022/12/13 04:25:37;;;;;;;15.60;8.50;;;-2.00;99.90;;;;;;4962495;28;20183;-79
2022/12/13 04:28:02;;;;;;;14.40;8.53;;;-2.00;99.90;;;;;;4965555;28;20218;-80
2022/12/13 04:30:28;;;;;;;14.27;8.00;;;-2.10;99.90;;;;;;4963746;28;20179;-80
2022/12/13 04:32:54;;;;;;;13.47;8.10;;;-2.00;99.90;;;;;;4967264;28;20180;-80
2022/12/13 04:35:21;;;;;;;13.47;8.07;;;-2.10;99.90;;;;;;4968727;28;20573;-78
2022/12/13 04:37:47;;;;;;;14.57;8.50;;;-2.00;99.90;;;;;;4971276;28;20195;-81
2022/12/13 04:40:13;;;;;;;15.13;8.50;;;-2.00;99.90;;;;;;4952369;28;20177;-80
2022/12/13 04:42:41;;;;;;;17.03;9.73;;;-2.00;99.90;;;;;;4975853;28;20196;-78
2022/12/13 04:45:13;;;;;;;17.63;10.13;;;-2.00;99.90;;;;;;4957042;28;20176;-80
2022/12/13 04:47:41;;;;;;;17.20;9.90;;;-2.00;99.90;;;;;;4961360;28;20187;-80
2022/12/13 04:50:07;;;;;;;18.87;9.83;;;-1.90;99.90;;;;;;4966034;28;20215;-80
2022/12/13 04:52:32;;;;;;;16.60;10.10;;;-1.90;99.90;;;;;;4959443;28;20176;-80
2022/12/13 04:54:58;;;;;;;16.83;10.43;;;-1.80;99.90;;;;;;4960264;28;20351;-80
2022/12/13 04:57:24;;;;;;;15.33;9.33;;;-1.70;99.90;;;;;;4960041;28;21712;-80
2022/12/13 04:59:49;;;;;;;17.37;10.23;;;-1.60;99.90;;;;;;4960395;28;20184;-78
2022/12/13 05:02:15;;;;;;;18.30;11.13;;;-1.60;99.90;;;;;;4966065;28;20250;-79
2022/12/13 05:04:40;;;;;;;19.23;10.53;;;-1.50;99.90;;;;;;4959855;28;20251;-80
2022/12/13 05:07:08;;;;;;;16.93;10.17;;;-1.40;99.90;;;;;;4963076;28;20180;-80
2022/12/13 05:09:36;;;;;;;19.30;11.13;;;-1.40;99.90;;;;;;4969026;28;20194;-81
2022/12/13 05:12:02;;;;;;;19.97;10.57;;;-1.30;99.90;;;;;;4973179;28;20176;-78
2022/12/13 05:14:32;;;;;;;16.00;9.57;;;-1.30;99.90;;;;;;4987148;28;20207;-78
2022/12/13 05:17:00;;;;;;;17.83;10.43;;;-1.20;99.90;;;;;;4959231;28;20219;-77
2022/12/13 05:19:27;;;;;;;15.80;9.43;;;-1.20;99.90;;;;;;4960735;28;20176;-81
2022/12/13 05:21:52;;;;;;;18.30;11.40;;;-1.10;99.90;;;;;;4958040;28;20177;-79
2022/12/13 05:24:20;;;;;;;21.43;12.30;;;-1.10;99.90;;;;;;4946153;28;20225;-79
2022/12/13 05:26:48;;;;;;;19.40;11.53;;;-1.00;99.90;;;;;;4959018;28;20188;-80
2022/12/13 05:29:14;;;;;;;19.33;10.93;;;-1.00;99.90;;;;;;4960510;28;20203;-79
2022/12/13 05:31:39;;;;;;;16.63;9.80;;;-1.00;99.90;;;;;;4957785;28;20203;-79
2022/12/13 05:34:05;;;;;;;16.53;10.27;;;-1.00;99.90;;;;;;4967712;28;20183;-79
2022/12/13 05:36:33;;;;;;;19.03;10.47;;;-1.00;99.90;;;;;;4960986;28;20180;-79
2022/12/13 05:39:03;;;;;;;16.47;10.30;;;-1.00;99.90;;;;;;4959695;28;20205;-79
2022/12/13 05:41:36;;;;;;;16.80;10.13;;;-1.00;99.90;;;;;;4960443;28;20191;-78
2022/12/13 05:44:04;;;;;;;19.50;10.63;;;-1.00;99.90;;;;;;4973376;28;20247;-77
2022/12/13 05:46:29;;;;;;;16.57;9.63;;;-1.00;99.90;;;;;;4950919;28;20196;-76
2022/12/13 05:48:57;;;;;;;16.33;9.00;;;-1.10;99.90;;;;;;4977634;28;20186;-77
2022/12/13 05:51:25;;;;;;;15.63;9.23;;;-1.10;99.90;;;;;;4959867;28;20185;-76
2022/12/13 05:53:51;;;;;;;15.33;9.47;;;-1.20;99.90;;;;;;4964633;28;20184;-76
2022/12/13 05:56:19;;;;;;;15.47;8.97;;;-1.20;99.90;;;;;;4965492;28;20255;-76
2022/12/13 05:58:45;;;;;;;13.13;7.90;;;-1.30;99.90;;;;;;4959703;28;20227;-78
2022/12/13 06:01:13;;;;;;;14.23;8.30;;;-1.30;99.90;;;;;;4964347;28;20172;-77
2022/12/13 06:03:40;;;;;;;12.53;8.07;;;-1.40;99.90;;;;;;4961006;28;20280;-78
2022/12/13 06:06:07;;;;;;;12.13;7.53;;;-1.40;99.90;;;;;;4958708;28;20223;-78
2022/12/13 06:08:34;;;;;;;11.57;6.93;;;-1.50;99.90;;;;;;4962623;28;20187;-78
2022/12/13 06:11:01;;;;;;;12.17;7.53;;;-1.50;99.90;;;;;;4972605;28;20239;-78
2022/12/13 06:13:31;;;;;;;14.93;8.90;;;-1.60;99.90;;;;;;4968481;28;20203;-78
2022/12/13 06:16:04;;;;;;;13.03;8.20;;;-1.70;99.90;;;;;;4975285;28;20183;-78
2022/12/13 06:18:36;;;;;;;13.40;8.43;;;-1.70;99.90;;;;;;4960518;28;20215;-78
2022/12/13 06:21:07;;;;;;;13.23;8.20;;;-1.70;99.90;;;;;;4967811;28;20204;-78
2022/12/13 06:23:34;;;;;;;15.40;8.20;;;-1.80;99.90;;;;;;4958944;28;20192;-83
2022/12/13 06:26:06;;;;;;;14.17;8.23;;;-1.80;99.90;;;;;;4951708;28;20176;-82
2022/12/13 06:28:34;;;;;;;12.50;7.57;;;-1.90;99.90;;;;;;4960083;28;20280;-83
2022/12/13 06:31:01;;;;;;;14.17;7.97;;;-1.90;99.90;;;;;;4965390;28;20534;-84
2022/12/13 06:33:27;;;;;;;14.33;8.70;;;-2.00;99.90;;;;;;4959653;28;20291;-83
2022/12/13 06:35:59;;;;;;;14.33;8.30;;;-2.00;99.90;;;;;;4959416;28;20275;-75
2022/12/13 06:38:25;;;;;;;14.03;7.57;;;-2.00;99.90;;;;;;4961505;28;20240;-75
2022/12/13 06:40:51;;;;;;;12.00;6.97;;;-2.00;99.90;;;;;;4967102;28;20212;-75
2022/12/13 06:43:18;;;;;;;11.73;7.57;;;-2.10;99.90;;;;;;4964912;28;20191;-75
2022/12/13 06:45:44;;;;;;;11.70;7.37;;;-2.10;99.90;;;;;;4947998;28;20192;-75
2022/12/13 06:48:11;;;;;;;15.37;8.37;;;-2.10;99.90;;;;;;4968091;28;20206;-75
2022/12/13 06:50:37;;;;;;;11.70;6.53;;;-2.10;99.90;;;;;;4946951;28;20176;-76
2022/12/13 06:53:02;;;;;;;12.00;7.40;;;-2.20;99.90;;;;;;4964215;28;20190;-76
2022/12/13 06:55:28;;;;;;;12.23;7.43;;;-2.20;99.90;;;;;;4974543;28;20265;-76
2022/12/13 06:57:57;;;;;;;11.87;6.73;;;-2.10;99.90;;;;;;4963371;28;20211;-74
2022/12/13 07:00:22;;;;;;;11.93;7.07;;;-2.20;99.90;;;;;;4959584;28;20204;-75
2022/12/13 07:02:56;;;;;;;12.27;7.30;;;-2.20;99.90;;;;;;4962023;28;20203;-74
2022/12/13 07:05:26;;;;;;;12.83;7.20;;;-2.20;99.90;;;;;;4970554;28;20179;-75
2022/12/13 07:07:52;;;;;;;12.13;7.50;;;-2.30;99.90;;;;;;4958712;28;20203;-74
2022/12/13 07:10:17;;;;;;;13.40;7.60;;;-2.30;99.90;;;;;;4968006;28;20239;-74
2022/12/13 07:12:43;;;;;;;11.07;6.80;;;-2.30;99.90;;;;;;4958921;28;20456;-74
2022/12/13 07:15:09;;;;;;;13.20;7.40;;;-2.20;99.90;;;;;;4964034;28;20202;-75
2022/12/13 07:17:35;;;;;;;12.00;7.50;;;-2.30;99.90;;;;;;4972159;28;20203;-74
2022/12/13 07:20:06;;;;;;;14.27;8.23;;;-2.30;99.90;;;;;;4971047;28;20255;-75
2022/12/13 07:22:32;;;;;;;11.40;7.33;;;-2.30;99.90;;;;;;4966256;28;20192;-74
2022/12/13 07:25:00;;;;;;;11.97;7.80;;;-2.30;99.90;;;;;;4970498;28;20242;-74
2022/12/13 07:27:25;;;;;;;11.93;7.70;;;-2.30;99.90;;;;;;4964128;28;20192;-74
2022/12/13 07:29:53;;;;;;;11.23;6.87;;;-2.30;99.90;;;;;;4973491;28;20190;-75
2022/12/13 07:32:19;;;;;;;11.03;6.90;;;-2.30;99.90;;;;;;4961905;28;20176;-75
2022/12/13 07:34:46;;;;;;;12.93;7.37;;;-2.20;99.90;;;;;;4962569;28;20235;-75
2022/12/13 07:37:14;;;;;;;10.83;7.13;;;-2.30;99.90;;;;;;4964586;28;20237;-75
2022/12/13 07:39:40;;;;;;;13.87;7.20;;;-2.30;99.90;;;;;;4961848;28;20188;-75
2022/12/13 07:42:05;;;;;;;10.90;6.67;;;-2.30;99.90;;;;;;4962695;28;20268;-75
2022/12/13 07:44:31;;;;;;;11.73;6.80;;;-2.30;99.90;;;;;;4964423;28;20184;-75
2022/12/13 07:46:56;;;;;;;12.23;6.90;;;-2.30;99.90;;;;;;4973045;28;20188;-75
2022/12/13 07:49:24;;;;;;;9.67;6.23;;;-2.30;99.90;;;;;;4962466;28;20212;-74
2022/12/13 07:51:52;;;;;;;11.27;6.93;;;-2.30;99.90;;;;;;4965566;28;20251;-75
2022/12/13 07:54:18;;;;;;;9.80;6.00;;;-2.30;99.90;;;;;;4971845;28;20222;-75
2022/12/13 07:56:43;;;;;;;11.70;6.37;;;-2.30;99.90;;;;;;4962116;28;20240;-75
2022/12/13 07:59:10;;;;;;;9.80;5.83;;;-2.30;99.90;;;;;;4966641;28;20192;-75
2022/12/13 08:01:35;;;;;;;10.27;6.07;;;-2.30;99.90;;;;;;4961100;28;20192;-74
2022/12/13 08:04:02;;;;;;;11.30;6.33;;;-2.10;99.90;;;;;;4973313;28;20188;-74
2022/12/13 08:06:27;;;;;;;10.03;6.07;;;-2.10;99.90;;;;;;4976502;28;20191;-74
2022/12/13 08:08:56;;;;;;;10.57;6.33;;;-2.20;99.90;;;;;;4961814;28;20271;-75
2022/12/13 08:11:24;;;;;;;11.47;6.73;;;-2.20;99.90;;;;;;4961483;28;20172;-74
2022/12/13 08:13:52;;;;;;;14.57;7.47;;;-2.10;99.90;;;;;;4971359;28;20267;-74
2022/12/13 08:16:18;;;;;;;14.27;8.50;;;-2.10;99.90;;;;;;4961284;28;20199;-75
2022/12/13 08:18:46;;;;;;;12.10;7.67;;;-2.00;99.90;;;;;;4964801;28;20206;-75
2022/12/13 08:21:12;;;;;;;14.37;8.67;;;-2.00;99.90;;;;;;4975307;28;20179;-74
2022/12/13 08:23:38;;;;;;;13.83;8.07;;;-1.90;99.90;;;;;;4969955;28;20228;-75
2022/12/13 08:26:07;;;;;;;13.20;7.80;;;-1.90;99.90;;;;;;4961685;28;20180;-75
2022/12/13 08:28:33;;;;;;;12.33;7.40;;;-1.90;99.90;;;;;;4981030;28;20197;-74
2022/12/13 08:31:05;;;;;;;15.20;9.60;;;-1.80;99.90;;;;;;4965469;28;20196;-74
2022/12/13 08:33:33;;;;;;;16.33;9.47;;;-1.70;99.90;;;;;;4968026;28;20183;-75
2022/12/13 08:36:08;;;;;;;14.33;8.13;;;-1.70;99.90;;;;;;4962779;28;20191;-75
2022/12/13 08:38:33;;;;;;;14.80;8.33;;;-1.70;99.90;;;;;;4976585;28;20276;-73
2022/12/13 08:40:59;;;;;;;17.40;10.27;;;-1.60;99.90;;;;;;4964669;28;20208;-75
2022/12/13 08:43:24;;;;;;;18.70;10.50;;;-1.60;99.90;;;;;;4969454;28;20188;-74
2022/12/13 08:45:50;;;;;;;17.63;10.13;;;-1.20;99.90;;;;;;4961358;28;20168;-75
2022/12/13 08:48:15;;;;;;;18.37;9.63;;;-1.50;99.90;;;;;;4970116;28;20183;-74
2022/12/13 08:50:41;;;;;;;12.70;8.17;;;-1.50;99.90;;;;;;4973499;28;20204;-76
2022/12/13 08:53:07;;;;;;;13.87;8.70;;;-1.40;99.90;;;;;;4962747;28;20192;-76
2022/12/13 08:55:32;;;;;;;14.17;8.40;;;-1.40;99.90;;;;;;4972605;28;20282;-75
2022/12/13 08:58:02;;;;;;;13.13;7.97;;;-1.30;99.90;;;;;;4961585;28;20285;-75
2022/12/13 09:00:28;;;;;;;12.20;7.70;;;-1.30;99.90;;;;;;4961989;28;20168;-76
2022/12/13 09:02:58;;;;;;;12.77;7.47;;;-1.20;99.90;;;;;;4960970;28;20250;-76
2022/12/13 09:05:25;;;;;;;11.90;7.93;;;-1.10;99.90;;;;;;4961211;28;20196;-76
2022/12/13 09:07:55;;;;;;;14.40;7.67;;;-1.00;99.90;;;;;;4960879;28;20190;-76
2022/12/13 09:10:24;;;;;;;13.37;7.73;;;-0.90;99.90;;;;;;4971558;28;20263;-76
2022/12/13 09:12:50;;;;;;;12.30;7.77;;;-0.70;99.90;;;;;;4986092;28;20180;-76
2022/12/13 09:15:18;;;;;;;11.47;7.20;;;-0.50;99.90;;;;;;4953079;28;20187;-75
2022/12/13 09:17:44;;;;;;;12.37;7.47;;;-0.40;99.90;;;;;;4960480;28;20204;-74
2022/12/13 09:20:10;;;;;;;12.87;7.80;;;-0.20;99.90;;;;;;4961371;28;20179;-74
2022/12/13 09:22:37;;;;;;;12.57;7.77;;;0.10;99.90;;;;;;4969919;28;20235;-76
2022/12/13 09:25:03;;;;;;;13.37;8.70;;;0.30;99.90;;;;;;4960092;28;20203;-76
2022/12/13 09:27:33;;;;;;;12.33;8.57;;;0.40;99.90;;;;;;4972584;28;20199;-73
2022/12/13 09:29:59;;;;;;;12.90;8.93;;;0.60;99.90;;;;;;4959756;28;20184;-73
2022/12/13 09:32:27;;;;;;;14.13;8.70;;;0.70;99.90;;;;;;4959301;28;20211;-75
2022/12/13 09:34:55;;;;;;;16.50;10.00;;;0.80;99.90;;;;;;4955535;28;20191;-76
2022/12/13 09:37:20;;;;;;;15.30;9.93;;;0.90;99.90;;;;;;4964034;28;20259;-75
2022/12/13 09:39:46;;;;;;;15.23;9.47;;;1.00;99.90;;;;;;4970447;28;20305;-76
2022/12/13 09:42:19;;;;;;;16.07;10.77;;;1.10;99.90;;;;;;4979753;28;20285;-76
2022/12/13 09:44:58;;;;;;;15.70;9.83;;;1.20;99.90;;;;;;4979669;28;20180;-75
2022/12/13 09:47:27;;;;;;;13.60;9.40;;;1.30;99.90;;;;;;4970547;28;20179;-76
2022/12/13 09:49:53;;;;;;;15.63;9.60;;;1.40;99.90;;;;;;4966235;28;20262;-74
2022/12/13 09:52:22;;;;;;;14.37;8.93;;;1.50;99.90;;;;;;4970271;28;20231;-76
2022/12/13 09:54:54;;;;;;;16.03;9.93;;;1.60;99.90;;;;;;4976088;28;20199;-78
2022/12/13 09:57:30;;;;;;;14.30;9.47;;;1.70;99.90;;;;;;4970661;28;20219;-76
2022/12/13 09:59:56;;;;;;;14.90;9.43;;;1.80;99.90;;;;;;4959722;28;20214;-75
2022/12/13 10:02:30;;;;;;;14.37;9.97;;;1.90;99.90;;;;;;4972980;28;20176;-75
2022/12/13 10:05:29;;;;;;;14.17;9.37;;;1.90;99.90;;;;;;4968839;28;20184;-75
2022/12/13 10:07:58;;;;;;;13.37;8.93;;;2.00;99.90;;;;;;4960171;28;20184;-76
2022/12/13 10:10:25;;;;;;;14.30;8.90;;;2.10;99.90;;;;;;4968658;28;20184;-75
2022/12/13 10:13:16;;;;;;;14.77;9.87;;;2.10;99.90;;;;;;4963141;28;20247;-75
2022/12/13 10:15:50;;;;;;;13.97;9.13;;;2.20;99.90;;;;;;4941226;29;20196;-76
2022/12/13 10:18:40;;;;;;;13.53;9.23;;;2.20;99.90;;;;;;4976062;28;20215;-76
2022/12/13 10:21:17;;;;;;;14.33;10.03;;;2.40;99.90;;;;;;4960496;28;20209;-76
2022/12/13 10:23:45;;;;;;;13.63;8.70;;;2.40;99.90;;;;;;4957809;28;20211;-75
2022/12/13 10:26:12;;;;;;;12.73;8.37;;;2.50;99.90;;;;;;4953698;28;20218;-75
2022/12/13 10:28:39;;;;;;;13.90;8.77;;;2.60;99.90;;;;;;4959708;28;20184;-76
2022/12/13 10:31:05;;;;;;;14.87;10.30;;;2.70;99.90;;;;;;4962886;28;20187;-75
2022/12/13 10:33:33;;;;;;;14.40;9.47;;;2.80;99.90;;;;;;4967826;28;20381;-76
2022/12/13 10:36:05;;;;;;;15.70;9.90;;;2.90;99.90;;;;;;4959774;28;20180;-75
2022/12/13 10:38:35;;;;;;;14.97;10.00;;;3.00;99.90;;;;;;4959361;28;20250;-76
2022/12/13 10:41:01;;;;;;;14.40;9.47;;;3.00;99.90;;;;;;4970010;28;20215;-76
2022/12/13 10:43:28;;;;;;;14.57;9.40;;;3.10;99.90;;;;;;4959108;28;20184;-76
2022/12/13 10:46:01;;;;;;;14.70;9.33;;;3.10;99.90;;;;;;4965318;28;20179;-75
2022/12/13 10:48:32;;;;;;;13.97;9.23;;;3.10;99.90;;;;;;4963882;28;20195;-75
2022/12/13 10:51:21;;;;;;;14.10;9.63;;;3.10;99.90;;;;;;4971452;28;20191;-75
2022/12/13 10:54:00;;;;;;;14.80;8.73;;;3.20;99.90;;;;;;4945337;28;20204;-75
2022/12/13 10:56:42;;;;;;;15.00;9.77;;;3.20;99.90;;;;;;4960740;28;20184;-75
2022/12/13 10:59:11;;;;;;;13.67;8.73;;;3.20;99.90;;;;;;4960839;28;20191;-75
2022/12/13 11:01:36;;;;;;;12.57;8.60;;;3.20;99.90;;;;;;4976900;28;20222;-76
2022/12/13 11:04:05;;;;;;;13.13;8.63;;;3.20;99.90;;;;;;4978813;28;20186;-74
2022/12/13 11:06:47;;;;;;;12.80;8.37;;;3.30;99.90;;;;;;4952056;28;20195;-75
2022/12/13 11:09:25;;;;;;;13.57;9.17;;;3.30;99.90;;;;;;4972531;28;20189;-75
2022/12/13 11:11:52;;;;;;;13.17;8.10;;;3.40;99.90;;;;;;4953273;28;20171;-76
2022/12/13 11:14:23;;;;;;;12.43;8.77;;;3.40;99.90;;;;;;4974076;28;20269;-75
2022/12/13 11:16:56;;;;;;;11.63;8.13;;;3.50;99.90;;;;;;4974068;28;20183;-75
2022/12/13 11:19:39;;;;;;;12.23;8.07;;;3.70;99.90;;;;;;4968194;28;20186;-75
2022/12/13 11:22:08;;;;;;;14.10;9.10;;;4.00;99.90;;;;;;4973355;28;20269;-77
2022/12/13 11:24:37;;;;;;;12.57;8.57;;;4.30;99.90;;;;;;4984259;28;20217;-75
2022/12/13 11:27:19;;;;;;;14.03;8.40;;;4.50;99.90;;;;;;4973035;28;20206;-74
2022/12/13 11:30:09;;;;;;;11.40;7.57;;;4.60;99.90;;;;;;4955711;28;20456;-75
2022/12/13 11:32:49;;;;;;;11.87;8.03;;;4.70;99.90;;;;;;4961054;28;20199;-75
2022/12/13 11:35:23;;;;;;;11.10;7.30;;;4.60;99.90;;;;;;4970267;28;20299;-74
2022/12/13 11:38:21;;;;;;;10.60;6.87;;;4.50;99.90;;;;;;4970836;28;20204;-73
2022/12/13 11:40:55;;;;;;;10.60;7.27;;;4.40;99.90;;;;;;4988636;28;20189;-75
2022/12/13 11:43:33;;;;;;;11.23;7.43;;;4.40;99.90;;;;;;4984190;28;20175;-76
2022/12/13 11:46:04;;;;;;;12.13;7.20;;;4.50;99.90;;;;;;4961902;28;20168;-75
2022/12/13 11:48:36;;;;;;;10.83;7.40;;;4.50;99.90;;;;;;4964121;28;20171;-75
2022/12/13 11:51:06;;;;;;;11.13;7.27;;;4.60;99.90;;;;;;4967082;28;20183;-76
2022/12/13 11:53:45;;;;;;;12.43;8.40;;;4.80;99.90;;;;;;4967686;28;20175;-76
2022/12/13 11:56:16;;;;;;;10.57;7.53;;;5.00;99.90;;;;;;4982298;28;20195;-75
2022/12/13 11:59:06;;;;;;;11.80;7.90;;;5.00;99.90;;;;;;4977852;28;20227;-74
2022/12/13 12:01:48;;;;;;;10.70;6.93;;;5.10;99.90;;;;;;4973302;28;20293;-75
2022/12/13 12:04:26;;;;;;;12.57;7.03;;;5.00;99.90;;;;;;4954849;28;20227;-76
2022/12/13 12:06:55;;;;;;;10.37;7.23;;;5.10;99.90;;;;;;4963190;28;20194;-75
2022/12/13 12:09:23;;;;;;;10.37;7.53;;;5.10;99.90;;;;;;4964599;28;20270;-75
2022/12/13 12:12:04;;;;;;;11.57;7.60;;;5.10;99.90;;;;;;4960563;28;20179;-75
2022/12/13 12:14:45;;;;;;;11.00;7.07;;;5.20;99.90;;;;;;4971156;28;20179;-75
2022/12/13 12:17:20;;;;;;;11.90;7.73;;;5.30;99.90;;;;;;4966557;28;20229;-75
2022/12/13 12:19:52;;;;;;;10.73;7.33;;;5.30;99.90;;;;;;4980689;28;20175;-75
2022/12/13 12:22:32;;;;;;;12.43;7.90;;;5.30;99.90;;;;;;4964420;28;20176;-75
2022/12/13 12:25:21;;;;;;;11.33;7.83;;;5.40;99.90;;;;;;4973565;28;20243;-74
2022/12/13 12:28:03;;;;;;;10.73;7.27;;;5.40;99.90;;;;;;4969238;28;20259;-74
2022/12/13 12:30:47;;;;;;;10.37;7.23;;;5.40;99.90;;;;;;4950919;28;20208;-75
2022/12/13 12:33:22;;;;;;;9.70;6.90;;;5.40;99.90;;;;;;4961281;28;20218;-74
2022/12/13 12:35:53;;;;;;;9.83;7.10;;;5.40;99.90;;;;;;4961547;28;20250;-75
2022/12/13 12:38:43;;;;;;;10.47;7.00;;;5.40;99.90;;;;;;4965200;28;20204;-73
2022/12/13 12:41:31;;;;;;;10.23;6.40;;;5.30;99.90;;;;;;4959735;28;20177;-75
2022/12/13 12:44:04;;;;;;;9.80;6.60;;;5.10;99.90;;;;;;4962881;28;20208;-74
2022/12/13 12:47:02;;;;;;;8.97;6.10;;;4.80;99.90;;;;;;4973041;28;20264;-74
2022/12/13 12:49:34;;;;;;;8.87;5.83;;;4.60;99.90;;;;;;4986032;28;20172;-75
2022/12/13 12:52:09;;;;;;;8.10;6.00;;;4.30;99.90;;;;;;4973414;28;20239;-74
2022/12/13 12:54:41;;;;;;;9.20;6.23;;;4.10;99.90;;;;;;4960565;28;20183;-73
2022/12/13 12:57:24;;;;;;;7.80;5.77;;;3.90;99.90;;;;;;4941938;28;20235;-75
2022/12/13 13:00:02;;;;;;;9.40;6.30;;;3.80;99.90;;;;;;4974941;28;20168;-74
2022/12/13 13:02:36;;;;;;;8.27;5.67;;;3.60;99.90;;;;;;4960241;28;20888;-75